createdAt,value
2023-02-01T00:08:57.660Z,3.21
2023-02-01T00:18:57.692Z,3.39
2023-02-01T00:28:58.023Z,3.54
2023-02-01T00:38:58.068Z,3.60
2023-02-01T00:48:58.406Z,3.52
2023-02-01T00:58:58.438Z,3.24
2023-02-01T01:08:58.777Z,3.18
2023-02-01T01:18:58.800Z,3.31
2023-02-01T01:28:59.168Z,3.48
2023-02-01T01:38:59.183Z,3.55
2023-02-01T01:48:59.505Z,3.52
2023-02-01T01:58:59.533Z,3.39
2023-02-01T02:08:59.796Z,3.32
2023-02-01T02:19:00.046Z,3.11
2023-02-01T02:29:00.149Z,2.82
2023-02-01T02:39:00.540Z,2.63
2023-02-01T02:49:00.585Z,2.63
2023-02-01T02:59:00.829Z,2.46
2023-02-01T03:09:01.103Z,2.27
2023-02-01T03:19:01.345Z,2.10
2023-02-01T03:29:01.672Z,1.86
2023-02-01T03:39:01.724Z,1.73
2023-02-01T03:49:03.062Z,1.90
2023-02-01T03:59:02.088Z,1.60
2023-02-01T04:09:02.402Z,1.95
2023-02-01T04:19:02.437Z,1.79
2023-02-01T04:29:02.789Z,2.14
2023-02-01T04:39:02.823Z,2.38
2023-02-01T04:49:03.160Z,2.03
2023-02-01T04:59:03.192Z,2.16
2023-02-01T05:09:03.522Z,2.42
2023-02-01T05:19:03.605Z,2.36
2023-02-01T05:29:03.705Z,2.27
2023-02-01T05:39:03.751Z,2.18
2023-02-01T05:49:04.061Z,2.39
2023-02-01T05:59:09.616Z,2.42
2023-02-01T06:09:04.289Z,2.99
2023-02-01T06:19:04.602Z,2.87
2023-02-01T06:29:04.649Z,2.14
2023-02-01T06:39:04.988Z,1.83
2023-02-01T06:49:05.023Z,1.99
2023-02-01T06:59:05.372Z,2.35
2023-02-01T07:09:05.392Z,2.12
2023-02-01T07:19:05.639Z,2.21
2023-02-01T07:29:05.874Z,2.31
2023-02-01T07:39:06.191Z,2.41
2023-02-01T07:49:06.242Z,2.16
2023-02-01T07:59:06.567Z,2.16
2023-02-01T08:09:06.599Z,2.30
2023-02-01T08:19:06.932Z,2.38
2023-02-01T08:29:06.967Z,2.41
2023-02-01T08:39:07.311Z,2.43
2023-02-01T08:49:07.357Z,2.48
2023-02-01T08:59:07.748Z,2.63
2023-02-01T09:09:07.818Z,2.35
2023-02-01T09:19:25.084Z,2.61
2023-02-01T09:29:09.252Z,2.78
2023-02-01T09:39:08.491Z,2.77
2023-02-01T09:49:08.799Z,3.02
2023-02-01T09:59:08.846Z,3.17
2023-02-01T10:09:09.199Z,3.15
2023-02-01T10:19:09.223Z,3.24
2023-02-01T10:29:09.661Z,3.24
2023-02-01T10:39:09.696Z,3.29
2023-02-01T10:49:10.038Z,3.08
2023-02-01T10:59:10.082Z,3.35
2023-02-01T11:09:10.390Z,3.52
2023-02-01T11:19:10.458Z,3.79
2023-02-01T11:29:10.771Z,3.98
2023-02-01T11:39:10.793Z,4.18
2023-02-01T11:49:11.142Z,4.22
2023-02-01T11:59:11.178Z,4.72
2023-02-01T12:09:11.515Z,4.85
2023-02-01T12:19:11.557Z,5.27
2023-02-01T12:29:13.805Z,4.97
2023-02-01T12:39:12.030Z,5.03
2023-02-01T12:49:12.343Z,5.21
2023-02-01T12:59:12.391Z,5.49
2023-02-01T13:09:12.730Z,5.99
2023-02-01T13:19:12.764Z,6.43
2023-02-01T13:29:13.083Z,6.92
2023-02-01T13:39:13.140Z,6.89
2023-02-01T13:49:13.457Z,6.95
2023-02-01T13:59:13.866Z,7.02
2023-02-01T14:09:15.151Z,7.02
2023-02-01T14:19:13.951Z,7.12
2023-02-01T14:29:20.339Z,7.03
2023-02-01T14:39:15.419Z,6.97
2023-02-01T14:49:14.525Z,6.97
2023-02-01T14:59:14.560Z,6.98
2023-02-01T15:09:14.957Z,6.91
2023-02-01T15:19:14.991Z,6.91
2023-02-01T15:29:15.458Z,6.74
2023-02-01T15:39:15.295Z,6.76
2023-02-01T15:49:15.576Z,6.71
2023-02-01T15:59:15.611Z,6.66
2023-02-01T16:09:15.967Z,6.61
2023-02-01T16:19:16.005Z,6.67
2023-02-01T16:29:16.248Z,6.51
2023-02-01T16:39:16.475Z,6.34
2023-02-01T16:49:16.945Z,6.17
2023-02-01T16:59:17.054Z,6.25
2023-02-01T17:09:17.949Z,6.14
2023-02-01T17:19:17.139Z,6.21
2023-02-01T17:29:17.267Z,6.36
2023-02-01T17:39:17.624Z,6.18
2023-02-01T17:49:17.593Z,6.30
2023-02-01T17:59:17.752Z,6.21
2023-02-01T18:09:17.973Z,6.58
2023-02-01T18:19:18.041Z,6.37
2023-02-01T18:29:18.547Z,6.37
2023-02-01T18:39:18.688Z,6.34
2023-02-01T18:49:19.716Z,6.43
2023-02-01T18:59:19.617Z,6.25
2023-02-01T19:09:19.227Z,6.08
2023-02-01T19:19:19.888Z,5.99
2023-02-01T19:29:19.392Z,5.89
2023-02-01T19:39:19.377Z,6.06
2023-02-01T19:49:19.630Z,6.17
2023-02-01T19:59:19.826Z,6.11
2023-02-01T20:09:19.140Z,6.25
2023-02-01T20:19:19.160Z,6.15
2023-02-01T20:29:20.364Z,6.25
2023-02-01T20:39:21.639Z,6.19
2023-02-01T20:49:20.563Z,6.34
2023-02-01T20:59:20.784Z,6.37
2023-02-01T21:09:21.738Z,6.37
2023-02-01T21:19:20.860Z,6.38
2023-02-01T21:29:20.979Z,6.25
2023-02-01T21:39:21.222Z,6.28
2023-02-01T21:49:21.456Z,6.19
2023-02-01T21:59:22.262Z,6.34
2023-02-01T22:09:23.783Z,6.28
2023-02-01T22:19:21.896Z,6.17
2023-02-01T22:29:23.002Z,5.78
2023-02-01T22:39:22.239Z,5.65
2023-02-01T22:49:22.565Z,5.51
2023-02-01T22:59:22.594Z,5.43
2023-02-01T23:09:22.900Z,5.56
2023-02-01T23:19:23.081Z,5.72
2023-02-01T23:29:23.176Z,5.86
2023-02-01T23:39:23.213Z,5.81
2023-02-01T23:49:23.545Z,5.67
2023-02-01T23:59:23.572Z,5.58
